createdAt,value
2018-06-01T00:01:42.947Z,101025.20
2018-06-01T00:04:11.882Z,101024.00
2018-06-01T00:06:40.861Z,101017.73
2018-06-01T00:09:09.928Z,101022.19
2018-06-01T00:11:38.840Z,101012.11
2018-06-01T00:14:07.819Z,101015.73
2018-06-01T00:16:37.002Z,101023.61
2018-06-01T00:19:05.841Z,101022.13
2018-06-01T00:21:35.032Z,101023.83
2018-06-01T00:24:04.172Z,101017.67
2018-06-01T00:26:33.257Z,101014.52
2018-06-01T00:29:02.183Z,101010.56
2018-06-01T00:31:31.090Z,101011.88
2018-06-01T00:34:00.100Z,101009.58
2018-06-01T00:36:29.194Z,101004.64
2018-06-01T00:38:58.227Z,101006.98
2018-06-01T00:41:27.117Z,101003.59
2018-06-01T00:43:56.310Z,101001.06
2018-06-01T00:46:25.368Z,100996.44
2018-06-01T00:48:54.328Z,101002.50
2018-06-01T00:51:23.396Z,101003.09
2018-06-01T00:53:52.278Z,100999.41
2018-06-01T00:56:21.164Z,100995.64
2018-06-01T00:58:50.102Z,100999.77
2018-06-01T01:01:19.064Z,100991.67
2018-06-01T01:03:48.020Z,100997.59
2018-06-01T01:06:16.885Z,100993.10
2018-06-01T01:08:46.036Z,100998.24
2018-06-01T01:11:14.983Z,100998.66
2018-06-01T01:13:44.090Z,100995.34
2018-06-01T01:16:13.006Z,100992.47
2018-06-01T01:18:41.925Z,100989.91
2018-06-01T01:21:11.016Z,100978.01
2018-06-01T01:23:40.204Z,100990.06
2018-06-01T01:26:09.433Z,100981.36
2018-06-01T01:28:38.297Z,100981.54
2018-06-01T01:31:07.418Z,100972.34
2018-06-01T01:33:37.824Z,100973.80
2018-06-01T01:36:06.808Z,100978.27
2018-06-01T01:38:35.660Z,100972.27
2018-06-01T01:41:04.616Z,100965.52
2018-06-01T01:43:33.508Z,100963.00
2018-06-01T01:46:02.377Z,100965.70
2018-06-01T01:48:31.081Z,100961.64
2018-06-01T01:50:59.910Z,100962.52
2018-06-01T01:53:29.020Z,100967.33
2018-06-01T01:55:58.097Z,100962.83
2018-06-01T01:58:27.034Z,100963.31
2018-06-01T02:00:55.859Z,100969.92
2018-06-01T02:03:24.861Z,100972.06
2018-06-01T02:05:53.761Z,100971.94
2018-06-01T02:08:23.006Z,100969.80
2018-06-01T02:10:52.161Z,100968.11
2018-06-01T02:13:21.287Z,100977.15
2018-06-01T02:15:50.444Z,100972.80
2018-06-01T02:18:19.444Z,100975.16
2018-06-01T02:20:48.601Z,100976.38
2018-06-01T02:23:17.653Z,100979.91
2018-06-01T02:25:46.658Z,100972.56
2018-06-01T02:28:15.617Z,100980.23
2018-06-01T02:30:44.714Z,100977.31
2018-06-01T02:33:13.564Z,100978.47
2018-06-01T02:35:42.650Z,100988.75
2018-06-01T02:38:11.645Z,100978.86
2018-06-01T02:40:40.542Z,100985.20
2018-06-01T02:43:09.556Z,100990.87
2018-06-01T02:45:38.726Z,100996.83
2018-06-01T02:48:08.437Z,100994.53
2018-06-01T02:50:37.554Z,100999.08
2018-06-01T02:53:06.443Z,101007.69
2018-06-01T02:55:35.339Z,101000.88
2018-06-01T02:58:04.448Z,100995.38
2018-06-01T03:00:33.568Z,101002.55
2018-06-01T03:03:02.525Z,100994.52
2018-06-01T03:05:31.644Z,100999.48
2018-06-01T03:08:00.650Z,100997.02
2018-06-01T03:10:29.527Z,100996.45
2018-06-01T03:12:58.404Z,100996.15
2018-06-01T03:15:27.245Z,101000.33
2018-06-01T03:17:55.984Z,101003.59
2018-06-01T03:20:25.001Z,101003.48
2018-06-01T03:22:54.200Z,100997.73
2018-06-01T03:25:23.245Z,101007.34
2018-06-01T03:27:52.206Z,100997.88
2018-06-01T03:30:21.433Z,101012.20
2018-06-01T03:32:50.272Z,101010.70
2018-06-01T03:35:19.165Z,101008.56
2018-06-01T03:37:48.178Z,101009.86
2018-06-01T03:40:17.050Z,101006.55
2018-06-01T03:42:46.155Z,100998.70
2018-06-01T03:45:15.223Z,100998.00
2018-06-01T03:47:44.323Z,100997.11
2018-06-01T03:50:13.484Z,100998.27
2018-06-01T03:52:42.629Z,100997.94
2018-06-01T03:55:11.512Z,100996.47
2018-06-01T03:57:40.569Z,101003.05
2018-06-01T04:00:10.309Z,100997.43
2018-06-01T04:02:39.449Z,101001.31
2018-06-01T04:05:08.528Z,101006.79
2018-06-01T04:07:37.612Z,101010.77
2018-06-01T04:10:06.537Z,101004.88
2018-06-01T04:12:35.456Z,101005.28
2018-06-01T04:15:04.452Z,101009.18
2018-06-01T04:17:33.469Z,101014.05
2018-06-01T04:20:02.543Z,101014.62
2018-06-01T04:22:31.625Z,101006.34
2018-06-01T04:25:00.756Z,101013.12
2018-06-01T04:27:29.634Z,101020.07
2018-06-01T04:29:58.613Z,101011.81
2018-06-01T04:32:27.486Z,101018.06
2018-06-01T04:34:56.484Z,101015.31
2018-06-01T04:37:25.639Z,101020.81
2018-06-01T04:39:54.488Z,101021.53
2018-06-01T04:42:23.420Z,101020.65
2018-06-01T04:44:52.322Z,101025.39
2018-06-01T04:47:21.396Z,101032.41
2018-06-01T04:49:50.445Z,101027.19
2018-06-01T04:52:19.505Z,101028.69
2018-06-01T04:54:48.477Z,101037.59
2018-06-01T04:57:17.553Z,101033.36
2018-06-01T04:59:46.396Z,101036.56
2018-06-01T05:02:15.272Z,101040.06
2018-06-01T05:04:44.137Z,101046.93
2018-06-01T05:07:13.252Z,101049.36
2018-06-01T05:09:42.166Z,101055.08
2018-06-01T05:12:11.180Z,101050.75
2018-06-01T05:14:40.435Z,101056.31
2018-06-01T05:17:09.390Z,101054.19
2018-06-01T05:19:38.426Z,101052.14
2018-06-01T05:22:07.609Z,101057.15
2018-06-01T05:24:36.717Z,101065.77
2018-06-01T05:27:06.135Z,101066.62
2018-06-01T05:29:35.291Z,101061.44
2018-06-01T05:32:04.256Z,101071.80
2018-06-01T05:34:33.518Z,101078.08
2018-06-01T05:37:02.613Z,101079.86
2018-06-01T05:39:31.706Z,101084.60
2018-06-01T05:42:00.802Z,101092.97
2018-06-01T05:44:29.752Z,101092.83
2018-06-01T05:46:58.887Z,101092.77
2018-06-01T05:49:27.941Z,101094.31
2018-06-01T05:51:57.067Z,101099.05
2018-06-01T05:54:26.093Z,101110.22
2018-06-01T05:56:55.283Z,101102.63
2018-06-01T05:59:24.325Z,101105.61
2018-06-01T06:01:53.584Z,101109.61
2018-06-01T06:04:22.676Z,101109.59
2018-06-01T06:06:51.722Z,101114.28
2018-06-01T06:09:20.880Z,101110.17
2018-06-01T06:11:50.122Z,101110.35
2018-06-01T06:14:19.137Z,101106.25
2018-06-01T06:16:48.356Z,101107.80
2018-06-01T06:19:17.509Z,101111.66
2018-06-01T06:21:46.701Z,101111.97
2018-06-01T06:24:15.980Z,101108.02
2018-06-01T06:26:45.111Z,101106.70
2018-06-01T06:29:14.185Z,101106.61
2018-06-01T06:31:43.350Z,101114.05
2018-06-01T06:34:12.423Z,101114.41
2018-06-01T06:36:41.580Z,101105.96
2018-06-01T06:39:11.527Z,101112.91
2018-06-01T06:41:40.616Z,101111.78
2018-06-01T06:44:09.371Z,101114.07
2018-06-01T06:46:38.468Z,101113.53
2018-06-01T06:49:07.707Z,101115.28
2018-06-01T06:51:36.610Z,101113.56
2018-06-01T06:54:05.701Z,101122.19
2018-06-01T06:56:34.788Z,101118.87
2018-06-01T06:59:03.728Z,101112.11
2018-06-01T07:01:32.816Z,101115.62
2018-06-01T07:04:01.670Z,101105.52
2018-06-01T07:06:30.861Z,101108.01
2018-06-01T07:09:00.273Z,101110.90
2018-06-01T07:11:29.608Z,101105.77
2018-06-01T07:13:59.263Z,101109.93
2018-06-01T07:16:28.384Z,101102.13
2018-06-01T07:18:57.473Z,101096.92
2018-06-01T07:21:26.610Z,101101.50
2018-06-01T07:23:55.665Z,101106.69
2018-06-01T07:26:24.896Z,101106.16
2018-06-01T07:28:53.936Z,101109.77
2018-06-01T07:31:23.104Z,101112.35
2018-06-01T07:33:52.199Z,101112.89
2018-06-01T07:36:21.485Z,101111.64
2018-06-01T07:38:50.698Z,101111.09
2018-06-01T07:41:19.929Z,101115.83
2018-06-01T07:43:49.136Z,101116.54
2018-06-01T07:46:18.221Z,101114.52
2018-06-01T07:48:47.217Z,101113.04
2018-06-01T07:51:16.247Z,101111.87
2018-06-01T07:53:45.294Z,101111.80
2018-06-01T07:56:14.397Z,101114.36
2018-06-01T07:58:43.332Z,101111.47
2018-06-01T08:01:12.438Z,101109.72
2018-06-01T08:03:41.688Z,101117.17
2018-06-01T08:06:10.765Z,101115.64
2018-06-01T08:08:39.908Z,101115.77
2018-06-01T08:11:09.161Z,101116.36
2018-06-01T08:13:38.367Z,101115.75
2018-06-01T08:16:07.553Z,101111.50
2018-06-01T08:18:36.654Z,101109.48
2018-06-01T08:21:05.757Z,101113.49
2018-06-01T08:23:34.949Z,101114.20
2018-06-01T08:26:03.913Z,101118.98
2018-06-01T08:28:32.841Z,101118.70
2018-06-01T08:31:01.828Z,101124.77
2018-06-01T08:33:30.781Z,101126.31
2018-06-01T08:35:59.916Z,101122.14
2018-06-01T08:38:29.280Z,101137.52
2018-06-01T08:40:58.302Z,101128.06
2018-06-01T08:43:27.219Z,101127.66
2018-06-01T08:45:56.266Z,101133.03
2018-06-01T08:48:25.490Z,101141.78
2018-06-01T08:50:54.524Z,101133.09
2018-06-01T08:53:23.369Z,101129.61
2018-06-01T08:55:52.565Z,101136.70
2018-06-01T08:58:21.677Z,101142.48
2018-06-01T09:00:50.700Z,101139.06
2018-06-01T09:03:19.900Z,101143.82
2018-06-01T09:05:49.642Z,101134.41
2018-06-01T09:08:18.767Z,101131.91
2018-06-01T09:10:47.822Z,101133.05
2018-06-01T09:13:16.812Z,101125.91
2018-06-01T09:15:45.851Z,101122.79
2018-06-01T09:18:15.052Z,101124.44
2018-06-01T09:20:44.120Z,101119.62
2018-06-01T09:23:13.093Z,101121.81
2018-06-01T09:25:42.060Z,101113.38
2018-06-01T09:28:11.155Z,101120.49
2018-06-01T09:30:40.395Z,101118.92
2018-06-01T09:33:09.359Z,101121.45
2018-06-01T09:35:38.684Z,101118.55
2018-06-01T09:38:08.129Z,101116.76
2018-06-01T09:40:37.154Z,101116.20
2018-06-01T09:43:06.193Z,101119.64
2018-06-01T09:45:35.404Z,101108.91
2018-06-01T09:48:04.682Z,101110.34
2018-06-01T09:50:33.581Z,101110.56
2018-06-01T09:53:02.652Z,101114.91
2018-06-01T09:55:32.143Z,101117.61
2018-06-01T09:58:01.482Z,101119.41
2018-06-01T10:00:36.472Z,101115.42
2018-06-01T10:03:05.960Z,101122.72
2018-06-01T10:05:35.120Z,101118.19
2018-06-01T10:08:05.140Z,101121.05
2018-06-01T10:10:37.146Z,101119.92
2018-06-01T10:13:06.396Z,101117.53
2018-06-01T10:15:35.497Z,101118.48
2018-06-01T10:18:04.654Z,101117.97
2018-06-01T10:20:35.646Z,101126.11
2018-06-01T10:23:04.503Z,101125.01
2018-06-01T10:25:33.593Z,101123.59
2018-06-01T10:28:02.610Z,101135.95
2018-06-01T10:30:31.536Z,101132.47
2018-06-01T10:33:00.557Z,101131.09
2018-06-01T10:35:29.496Z,101132.05
2018-06-01T10:37:58.730Z,101134.86
2018-06-01T10:40:27.823Z,101137.94
2018-06-01T10:42:56.866Z,101141.16
2018-06-01T10:45:25.864Z,101138.20
2018-06-01T10:47:54.843Z,101141.56
2018-06-01T10:50:23.705Z,101137.66
2018-06-01T10:52:52.609Z,101140.44
2018-06-01T10:55:21.765Z,101141.41
2018-06-01T10:57:50.888Z,101145.71
2018-06-01T11:00:19.978Z,101137.85
2018-06-01T11:02:49.219Z,101134.06
2018-06-01T11:05:18.421Z,101132.70
2018-06-01T11:07:47.438Z,101126.80
2018-06-01T11:10:16.561Z,101126.51
2018-06-01T11:12:45.640Z,101126.11
2018-06-01T11:15:14.679Z,101126.33
2018-06-01T11:17:44.399Z,101124.72
2018-06-01T11:20:13.517Z,101126.48
2018-06-01T11:22:42.797Z,101129.42
2018-06-01T11:25:11.687Z,101126.56
2018-06-01T11:27:40.745Z,101123.46
2018-06-01T11:30:09.916Z,101126.34
2018-06-01T11:32:38.924Z,101118.22
2018-06-01T11:35:08.224Z,101124.23
2018-06-01T11:37:37.315Z,101127.11
2018-06-01T11:40:06.557Z,101120.61
2018-06-01T11:42:35.755Z,101131.06
2018-06-01T11:45:05.088Z,101123.13
2018-06-01T11:47:34.416Z,101131.33
2018-06-01T11:50:03.458Z,101121.42
2018-06-01T11:52:32.590Z,101120.30
2018-06-01T11:55:01.629Z,101115.58
2018-06-01T11:57:30.698Z,101119.28
2018-06-01T11:59:59.877Z,101119.24
2018-06-01T12:02:29.164Z,101116.11
2018-06-01T12:04:58.333Z,101114.53
2018-06-01T12:07:27.485Z,101121.59
2018-06-01T12:09:56.667Z,101118.27
2018-06-01T12:12:25.764Z,101117.31
2018-06-01T12:14:54.966Z,101116.89
2018-06-01T12:20:06.066Z,101121.95
2018-06-01T12:22:35.133Z,101124.09
2018-06-01T12:25:04.712Z,101123.86
2018-06-01T12:27:33.750Z,101121.30
2018-06-01T12:30:02.924Z,101133.44
2018-06-01T12:32:31.932Z,101130.77
2018-06-01T12:35:01.038Z,101133.30
2018-06-01T12:37:30.192Z,101141.03
2018-06-01T12:39:59.160Z,101141.14
2018-06-01T12:42:28.244Z,101143.55
2018-06-01T12:44:57.163Z,101142.97
2018-06-01T12:47:26.004Z,101140.80
2018-06-01T12:49:55.075Z,101134.38
2018-06-01T12:52:24.172Z,101143.94
2018-06-01T12:54:53.230Z,101141.19
2018-06-01T12:57:22.166Z,101149.27
2018-06-01T12:59:51.432Z,101155.08
2018-06-01T13:02:20.944Z,101159.33
2018-06-01T13:04:50.334Z,101155.89
2018-06-01T13:07:19.475Z,101150.95
2018-06-01T13:09:48.677Z,101159.28
2018-06-01T13:12:17.916Z,101151.81
2018-06-01T13:14:46.962Z,101150.70
2018-06-01T13:17:15.993Z,101143.89
2018-06-01T13:19:45.092Z,101149.30
2018-06-01T13:22:14.204Z,101154.81
2018-06-01T13:24:43.342Z,101158.86
2018-06-01T13:27:12.525Z,101170.98
2018-06-01T13:29:41.516Z,101161.23
2018-06-01T13:32:10.364Z,101163.77
2018-06-01T13:34:39.312Z,101169.96
2018-06-01T13:37:08.328Z,101171.27
2018-06-01T13:39:37.371Z,101173.38
2018-06-01T13:42:06.144Z,101176.75
2018-06-01T13:44:35.280Z,101180.48
2018-06-01T13:47:04.424Z,101190.88
2018-06-01T13:49:33.368Z,101202.05
2018-06-01T13:52:02.742Z,101188.50
2018-06-01T13:54:32.790Z,101203.33
2018-06-01T13:57:01.735Z,101206.66
2018-06-01T13:59:30.865Z,101201.55
2018-06-01T14:01:59.912Z,101200.51
2018-06-01T14:04:28.763Z,101193.84
2018-06-01T14:06:57.661Z,101201.14
2018-06-01T14:09:26.759Z,101203.39
2018-06-01T14:11:55.904Z,101202.23
2018-06-01T14:14:25.108Z,101197.54
2018-06-01T14:16:54.203Z,101193.72
2018-06-01T14:19:23.260Z,101195.84
2018-06-01T14:21:52.460Z,101207.84
2018-06-01T14:24:22.355Z,101197.63
2018-06-01T14:26:51.473Z,101202.59
2018-06-01T14:29:20.619Z,101209.66
2018-06-01T14:31:49.839Z,101201.95
2018-06-01T14:34:18.716Z,101197.52
2018-06-01T14:36:47.597Z,101206.61
2018-06-01T14:39:16.775Z,101203.48
2018-06-01T14:41:45.827Z,101203.23
2018-06-01T14:44:14.988Z,101201.66
2018-06-01T14:46:43.980Z,101206.47
2018-06-01T14:49:13.184Z,101200.43
2018-06-01T14:51:42.253Z,101207.48
2018-06-01T14:54:11.383Z,101198.25
2018-06-01T14:56:40.616Z,101201.97
2018-06-01T14:59:09.563Z,101213.31
2018-06-01T15:01:38.644Z,101210.65
2018-06-01T15:04:07.818Z,101211.17
2018-06-01T15:06:36.705Z,101203.05
2018-06-01T15:09:06.050Z,101201.75
2018-06-01T15:11:35.255Z,101201.61
2018-06-01T15:14:04.433Z,101204.02
2018-06-01T15:16:33.505Z,101214.36
2018-06-01T15:19:02.373Z,101205.67
2018-06-01T15:21:31.298Z,101218.62
2018-06-01T15:24:00.266Z,101212.86
2018-06-01T15:26:29.109Z,101214.28
2018-06-01T15:28:58.005Z,101212.41
2018-06-01T15:31:26.904Z,101224.03
2018-06-01T15:33:55.805Z,101222.77
2018-06-01T15:36:25.092Z,101236.05
2018-06-01T15:38:54.233Z,101249.19
2018-06-01T15:41:23.234Z,101240.66
2018-06-01T15:43:52.456Z,101243.61
2018-06-01T15:46:21.552Z,101242.73
2018-06-01T15:48:50.540Z,101233.50
2018-06-01T15:51:19.464Z,101242.16
2018-06-01T15:53:48.385Z,101244.50
2018-06-01T15:56:17.848Z,101248.55
2018-06-01T15:58:46.876Z,101247.33
2018-06-01T16:01:15.941Z,101256.22
2018-06-01T16:03:45.106Z,101259.23
2018-06-01T16:06:14.113Z,101263.07
2018-06-01T16:08:43.073Z,101260.19
2018-06-01T16:11:12.024Z,101264.99
2018-06-01T16:13:40.874Z,101254.80
2018-06-01T16:16:09.968Z,101252.23
2018-06-01T16:18:39.110Z,101256.17
2018-06-01T16:21:08.076Z,101258.86
2018-06-01T16:23:36.981Z,101254.44
2018-06-01T16:26:06.000Z,101264.27
2018-06-01T16:28:34.950Z,101274.13
2018-06-01T16:31:03.776Z,101277.02
2018-06-01T16:33:33.048Z,101278.00
2018-06-01T16:36:02.257Z,101281.91
2018-06-01T16:38:31.511Z,101284.83
2018-06-01T16:41:00.536Z,101279.98
2018-06-01T16:43:29.643Z,101281.59
2018-06-01T16:45:58.804Z,101285.45
2018-06-01T16:48:27.916Z,101300.63
2018-06-01T16:50:57.208Z,101290.34
2018-06-01T16:53:26.036Z,101292.80
2018-06-01T16:55:55.092Z,101300.91
2018-06-01T16:58:23.932Z,101298.73
2018-06-01T17:00:52.876Z,101304.81
2018-06-01T17:03:21.758Z,101303.20
2018-06-01T17:05:50.595Z,101305.48
2018-06-01T17:08:19.512Z,101311.55
2018-06-01T17:10:48.569Z,101316.51
2018-06-01T17:13:17.515Z,101321.55
2018-06-01T17:15:46.601Z,101320.44
2018-06-01T17:18:15.560Z,101316.53
2018-06-01T17:20:44.452Z,101318.42
2018-06-01T17:23:13.661Z,101322.25
2018-06-01T17:25:42.724Z,101321.22
2018-06-01T17:28:11.834Z,101326.20
2018-06-01T17:30:40.745Z,101329.81
2018-06-01T17:33:09.632Z,101333.02
2018-06-01T17:35:38.598Z,101344.12
2018-06-01T17:38:07.580Z,101342.86
2018-06-01T17:40:36.701Z,101344.32
2018-06-01T17:43:05.769Z,101348.16
2018-06-01T17:45:35.104Z,101342.61
2018-06-01T17:48:04.497Z,101345.50
2018-06-01T17:50:33.693Z,101345.27
2018-06-01T17:53:03.094Z,101350.25
2018-06-01T17:55:32.401Z,101356.38
2018-06-01T17:58:01.348Z,101359.97
2018-06-01T18:00:30.634Z,101359.87
2018-06-01T18:02:59.693Z,101357.25
2018-06-01T18:05:29.761Z,101356.52
2018-06-01T18:07:58.849Z,101353.13
2018-06-01T18:10:28.026Z,101361.00
2018-06-01T18:12:56.918Z,101360.58
2018-06-01T18:15:25.916Z,101359.67
2018-06-01T18:17:55.708Z,101362.42
2018-06-01T18:20:24.627Z,101370.80
2018-06-01T18:22:53.732Z,101375.48
2018-06-01T18:25:22.872Z,101382.21
2018-06-01T18:27:51.977Z,101387.56
2018-06-01T18:30:21.024Z,101390.06
2018-06-01T18:32:50.045Z,101385.31
2018-06-01T18:35:19.170Z,101385.94
2018-06-01T18:37:48.212Z,101386.22
2018-06-01T18:40:17.408Z,101397.03
2018-06-01T18:42:46.550Z,101392.78
2018-06-01T18:45:15.716Z,101395.51
2018-06-01T18:47:44.961Z,101389.70
2018-06-01T18:50:13.914Z,101401.90
2018-06-01T18:52:42.805Z,101412.14
2018-06-01T18:55:12.012Z,101411.72
2018-06-01T18:57:41.745Z,101417.79
2018-06-01T19:00:10.955Z,101421.45
2018-06-01T19:02:39.956Z,101426.26
2018-06-01T19:05:08.926Z,101433.48
2018-06-01T19:07:38.064Z,101435.80
2018-06-01T19:10:07.018Z,101441.02
2018-06-01T19:12:36.064Z,101443.63
2018-06-01T19:15:05.340Z,101447.26
2018-06-01T19:17:34.459Z,101450.06
2018-06-01T19:20:04.278Z,101446.66
2018-06-01T19:22:33.437Z,101447.69
2018-06-01T19:25:02.599Z,101454.80
2018-06-01T19:27:31.677Z,101458.94
2018-06-01T19:30:00.744Z,101460.30
2018-06-01T19:32:29.668Z,101464.86
2018-06-01T19:34:58.517Z,101461.45
2018-06-01T19:37:27.441Z,101464.42
2018-06-01T19:39:56.313Z,101470.45
2018-06-01T19:42:25.173Z,101479.31
2018-06-01T19:44:54.320Z,101473.28
2018-06-01T19:47:23.209Z,101471.50
2018-06-01T19:49:52.220Z,101487.02
2018-06-01T19:52:21.540Z,101477.80
2018-06-01T19:54:50.485Z,101483.00
2018-06-01T19:57:19.400Z,101485.72
2018-06-01T19:59:48.761Z,101487.47
2018-06-01T20:02:17.593Z,101489.25
2018-06-01T20:04:46.739Z,101487.69
2018-06-01T20:07:15.941Z,101502.27
2018-06-01T20:09:45.020Z,101494.87
2018-06-01T20:12:14.081Z,101498.47
2018-06-01T20:14:43.334Z,101503.34
2018-06-01T20:17:12.182Z,101502.86
2018-06-01T20:19:41.178Z,101500.66
2018-06-01T20:22:10.529Z,101494.28
2018-06-01T20:24:39.516Z,101497.82
2018-06-01T20:27:08.398Z,101495.81
2018-06-01T20:29:37.417Z,101498.17
2018-06-01T20:32:06.453Z,101499.98
2018-06-01T20:34:35.310Z,101509.13
2018-06-01T20:37:04.688Z,101500.79
2018-06-01T20:39:34.120Z,101506.22
2018-06-01T20:42:03.141Z,101501.44
2018-06-01T20:44:32.065Z,101505.22
2018-06-01T20:47:01.316Z,101509.47
2018-06-01T20:49:30.536Z,101511.66
2018-06-01T20:51:59.486Z,101507.68
2018-06-01T20:54:28.676Z,101508.26
2018-06-01T20:56:57.726Z,101508.34
2018-06-01T20:59:26.856Z,101513.95
2018-06-01T21:01:56.070Z,101522.63
2018-06-01T21:04:25.149Z,101510.98
2018-06-01T21:06:54.023Z,101514.78
2018-06-01T21:09:23.153Z,101510.23
2018-06-01T21:11:52.270Z,101520.73
2018-06-01T21:14:21.292Z,101524.14
2018-06-01T21:16:50.084Z,101527.73
2018-06-01T21:19:19.144Z,101521.13
2018-06-01T21:21:48.285Z,101531.43
2018-06-01T21:24:17.168Z,101524.42
2018-06-01T21:26:46.096Z,101524.45
2018-06-01T21:29:15.153Z,101532.61
2018-06-01T21:31:44.152Z,101528.77
2018-06-01T21:34:13.348Z,101527.72
2018-06-01T21:36:42.404Z,101525.45
2018-06-01T21:39:11.364Z,101526.41
2018-06-01T21:41:40.495Z,101528.34
2018-06-01T21:44:09.458Z,101535.21
2018-06-01T21:46:38.360Z,101538.69
2018-06-01T21:49:07.362Z,101544.57
2018-06-01T21:51:36.425Z,101547.58
2018-06-01T21:54:05.400Z,101547.49
2018-06-01T21:56:34.636Z,101545.45
2018-06-01T21:59:03.401Z,101552.33
2018-06-01T22:01:32.516Z,101569.28
2018-06-01T22:04:01.541Z,101563.73
2018-06-01T22:06:30.625Z,101561.00
2018-06-01T22:08:59.505Z,101555.97
2018-06-01T22:11:28.480Z,101562.55
2018-06-01T22:13:57.808Z,101561.83
2018-06-01T22:16:26.691Z,101550.03
2018-06-01T22:18:55.766Z,101548.56
2018-06-01T22:21:24.903Z,101545.97
2018-06-01T22:23:53.597Z,101552.17
2018-06-01T22:26:22.650Z,101544.69
2018-06-01T22:28:51.649Z,101547.61
2018-06-01T22:31:20.539Z,101544.03
2018-06-01T22:33:49.523Z,101551.44
2018-06-01T22:36:18.558Z,101556.58
2018-06-01T22:38:48.012Z,101555.27
2018-06-01T22:41:17.037Z,101545.29
2018-06-01T22:43:46.028Z,101543.70
2018-06-01T22:46:14.981Z,101552.02
2018-06-01T22:48:43.992Z,101548.23
2018-06-01T22:51:12.935Z,101549.72
2018-06-01T22:53:41.989Z,101553.11
2018-06-01T22:56:11.080Z,101551.59
2018-06-01T22:58:40.167Z,101548.89
2018-06-01T23:01:09.287Z,101545.35
2018-06-01T23:03:38.407Z,101549.12
2018-06-01T23:06:07.521Z,101539.02
2018-06-01T23:08:36.565Z,101548.49
2018-06-01T23:11:05.820Z,101549.09
2018-06-01T23:13:34.884Z,101548.66
2018-06-01T23:16:03.857Z,101539.13
2018-06-01T23:18:32.906Z,101536.98
2018-06-01T23:21:01.937Z,101528.80
2018-06-01T23:23:30.996Z,101532.86
2018-06-01T23:25:59.856Z,101525.02
2018-06-01T23:28:28.713Z,101524.18
2018-06-01T23:30:57.505Z,101523.73
2018-06-01T23:33:26.581Z,101523.30
2018-06-01T23:35:55.617Z,101515.37
2018-06-01T23:38:24.617Z,101514.99
2018-06-01T23:40:53.691Z,101514.70
2018-06-01T23:43:23.563Z,101518.37
2018-06-01T23:45:52.658Z,101518.70
2018-06-01T23:48:21.471Z,101509.23
2018-06-01T23:50:50.337Z,101508.25
2018-06-01T23:53:19.331Z,101500.86
2018-06-01T23:55:48.487Z,101500.80
2018-06-01T23:58:17.312Z,101495.32
